createdAt,value
2022-10-08T00:00:00.737Z,74.6
2022-10-08T00:05:01.116Z,75.0
2022-10-08T00:10:00.715Z,75.3
2022-10-08T00:15:00.901Z,76.2
2022-10-08T00:20:00.745Z,76.5
2022-10-08T00:25:00.811Z,72.2
2022-10-08T00:30:00.739Z,71.2
2022-10-08T00:35:00.835Z,70.4
2022-10-08T00:40:00.743Z,69.9
2022-10-08T00:45:00.870Z,74.9
2022-10-08T00:50:00.756Z,74.0
2022-10-08T00:55:00.848Z,73.8
2022-10-08T01:00:00.778Z,73.8
2022-10-08T01:05:01.253Z,73.9
2022-10-08T01:10:00.758Z,69.4
2022-10-08T01:15:02.070Z,68.2
2022-10-08T01:20:00.748Z,66.9
2022-10-08T01:35:00.848Z,61.0
2022-10-08T01:40:00.743Z,62.9
2022-10-08T01:45:00.943Z,63.7
2022-10-08T01:50:00.748Z,64.7
2022-10-08T01:55:00.895Z,64.8
2022-10-08T02:00:00.744Z,65.8
2022-10-08T02:05:00.880Z,64.7
2022-10-08T02:10:00.770Z,63.8
2022-10-08T02:15:00.830Z,62.0
2022-10-08T02:20:00.746Z,60.8
2022-10-08T02:25:00.810Z,60.5
2022-10-08T02:30:00.745Z,62.0
2022-10-08T02:35:00.915Z,63.1
2022-10-08T02:40:00.748Z,67.5
2022-10-08T02:45:05.873Z,69.2
2022-10-08T03:05:01.741Z,62.8
2022-10-08T03:10:01.637Z,63.0
2022-10-08T03:15:01.771Z,64.3
2022-10-08T03:20:01.627Z,64.1
2022-10-08T03:25:01.718Z,70.2
2022-10-08T03:30:01.625Z,71.2
2022-10-08T03:35:02.162Z,73.1
2022-10-08T03:40:01.618Z,73.5
2022-10-08T03:45:07.255Z,75.3
2022-10-08T03:50:01.643Z,70.7
2022-10-08T03:55:01.677Z,71.2
2022-10-08T04:00:01.601Z,69.7
2022-10-08T04:05:02.858Z,68.6
2022-10-08T04:10:06.601Z,67.2
2022-10-08T04:15:01.662Z,66.3
2022-10-08T04:20:01.675Z,65.8
2022-10-08T04:25:01.680Z,66.6
2022-10-08T04:30:01.586Z,67.8
2022-10-08T04:35:01.756Z,68.9
2022-10-08T04:40:01.610Z,70.1
2022-10-08T04:45:01.664Z,71.3
2022-10-08T04:50:01.573Z,71.8
2022-10-08T04:55:01.704Z,71.4
2022-10-08T05:00:18.633Z,70.3
2022-10-08T05:05:06.673Z,68.3
2022-10-08T05:10:01.863Z,66.8
2022-10-08T05:15:01.613Z,65.7
2022-10-08T05:20:01.557Z,69.6
2022-10-08T05:25:01.737Z,69.9
2022-10-08T05:30:01.587Z,71.6
2022-10-08T05:35:01.671Z,72.6
2022-10-08T05:40:01.954Z,74.2
2022-10-08T05:45:01.710Z,69.2
2022-10-08T05:50:01.536Z,68.2
2022-10-08T05:55:01.658Z,67.0
2022-10-08T06:00:01.523Z,65.5
2022-10-08T06:05:01.699Z,71.6
2022-10-08T06:10:01.519Z,72.0
2022-10-08T06:15:01.585Z,73.2
2022-10-08T06:20:01.532Z,73.5
2022-10-08T06:25:01.666Z,74.0
2022-10-08T06:30:01.508Z,67.8
2022-10-08T06:35:01.581Z,69.8
2022-10-08T06:40:01.502Z,68.5
2022-10-08T06:45:06.589Z,68.4
2022-10-08T06:55:01.557Z,66.2
2022-10-08T07:00:01.491Z,64.4
2022-10-08T07:05:01.639Z,66.0
2022-10-08T07:10:01.485Z,66.6
2022-10-08T07:15:01.615Z,68.7
2022-10-08T07:20:01.476Z,70.7
2022-10-08T07:25:01.568Z,73.0
2022-10-08T07:30:01.475Z,72.7
2022-10-08T07:35:01.531Z,71.6
2022-10-08T07:40:01.467Z,69.8
2022-10-08T07:45:01.626Z,69.6
2022-10-08T07:50:01.757Z,68.2
2022-10-08T07:55:01.587Z,68.3
2022-10-08T08:00:01.821Z,73.6
2022-10-08T08:05:01.577Z,74.2
2022-10-08T08:10:01.458Z,73.9
2022-10-08T08:15:06.637Z,74.8
2022-10-08T08:20:01.442Z,74.6
2022-10-08T08:25:01.932Z,69.6
2022-10-08T08:30:01.435Z,69.2
2022-10-08T08:35:01.556Z,69.0
2022-10-08T08:40:01.539Z,68.3
2022-10-08T08:45:01.580Z,73.1
2022-10-08T08:50:01.933Z,74.7
2022-10-08T09:05:01.811Z,62.2
2022-10-08T09:10:01.931Z,64.1
2022-10-08T09:15:01.719Z,65.3
2022-10-08T09:20:01.875Z,65.8
2022-10-08T09:25:01.693Z,65.6
2022-10-08T09:30:01.778Z,66.6
2022-10-08T09:45:01.193Z,66.6
2022-10-08T09:50:01.025Z,67.1
2022-10-08T09:55:01.157Z,65.3
2022-10-08T10:15:06.538Z,59.4
2022-10-08T10:20:01.420Z,61.8
2022-10-08T10:35:00.836Z,73.8
2022-10-08T10:40:00.730Z,76.4
2022-10-08T10:45:00.797Z,74.7
2022-10-08T10:50:00.729Z,73.0
2022-10-08T10:55:00.885Z,72.2
2022-10-08T11:15:01.303Z,77.2
2022-10-08T11:35:01.792Z,67.0
2022-10-08T11:55:01.109Z,67.2
2022-10-08T12:00:04.377Z,70.4
2022-10-08T12:15:01.375Z,76.4
2022-10-08T12:35:01.747Z,68.4
2022-10-08T12:40:06.633Z,69.2
2022-10-08T12:45:01.763Z,70.1
2022-10-08T13:05:01.119Z,75.8
2022-10-08T13:25:01.606Z,67.8
2022-10-08T13:45:01.294Z,60.6
2022-10-08T13:50:00.755Z,61.4
2022-10-08T13:55:01.040Z,61.5
2022-10-08T14:00:00.753Z,63.3
2022-10-08T14:05:05.881Z,67.6
2022-10-08T14:10:00.749Z,69.8
2022-10-08T14:15:00.879Z,71.1
2022-10-08T14:20:00.748Z,73.2
2022-10-08T14:25:01.185Z,72.8
2022-10-08T14:30:00.761Z,68.6
2022-10-08T14:35:00.845Z,67.1
2022-10-08T14:40:00.762Z,67.4
2022-10-08T14:45:00.916Z,67.2
2022-10-08T14:50:00.774Z,70.8
2022-10-08T14:55:06.953Z,73.6
2022-10-08T15:00:00.773Z,75.9
2022-10-08T15:05:00.857Z,77.6
2022-10-08T15:10:00.775Z,79.3
2022-10-08T15:15:00.924Z,78.8
2022-10-08T15:20:00.776Z,78.9
2022-10-08T15:25:00.931Z,79.4
2022-10-08T15:30:00.780Z,77.7
2022-10-08T15:35:00.901Z,75.9
2022-10-08T15:40:00.836Z,73.2
2022-10-08T15:45:00.869Z,71.6
2022-10-08T15:50:00.775Z,70.3
2022-10-08T15:55:01.869Z,70.0
2022-10-08T16:00:00.753Z,71.9
2022-10-08T16:05:01.009Z,72.2
2022-10-08T16:10:00.775Z,72.0
2022-10-08T16:15:00.835Z,71.6
2022-10-08T16:20:00.909Z,71.8
2022-10-08T16:25:00.868Z,69.4
2022-10-08T16:30:00.777Z,69.4
2022-10-08T16:35:05.804Z,68.3
2022-10-08T16:40:00.891Z,67.6
2022-10-08T17:05:01.460Z,69.6
2022-10-08T17:10:01.489Z,68.3
2022-10-08T17:15:01.485Z,69.6
2022-10-08T17:20:01.363Z,69.3
2022-10-08T17:25:01.471Z,70.4
2022-10-08T17:30:01.361Z,69.8
2022-10-08T17:35:01.427Z,72.4
2022-10-08T17:40:01.375Z,74.2
2022-10-08T17:45:01.481Z,76.7
2022-10-08T17:50:01.331Z,75.4
2022-10-08T17:55:01.417Z,76.0
2022-10-08T18:00:01.364Z,74.4
2022-10-08T18:05:01.474Z,72.5
2022-10-08T18:10:01.361Z,70.4
2022-10-08T18:15:06.442Z,71.2
2022-10-08T18:25:01.563Z,71.0
2022-10-08T18:30:01.305Z,70.7
2022-10-08T18:35:01.461Z,70.9
2022-10-08T18:40:01.300Z,70.7
2022-10-08T18:45:01.388Z,71.4
2022-10-08T18:50:01.385Z,70.9
2022-10-08T18:55:01.555Z,70.8
2022-10-08T19:00:01.365Z,70.1
2022-10-08T19:05:02.641Z,68.6
2022-10-08T19:10:01.374Z,66.7
2022-10-08T19:15:01.348Z,66.7
2022-10-08T19:25:01.459Z,71.2
2022-10-08T19:30:01.299Z,72.2
2022-10-08T19:35:01.398Z,74.4
2022-10-08T19:40:06.293Z,76.6
2022-10-08T19:45:01.398Z,77.1
2022-10-08T19:50:01.259Z,75.7
2022-10-08T19:55:01.324Z,78.4
2022-10-08T20:00:01.292Z,79.4
2022-10-08T20:05:01.317Z,80.0
2022-10-08T20:10:01.245Z,85.4
2022-10-08T20:15:01.312Z,85.4
2022-10-08T20:20:15.089Z,84.1
2022-10-08T20:25:02.361Z,83.6
2022-10-08T20:30:01.235Z,82.6
2022-10-08T20:35:01.301Z,76.7
2022-10-08T20:40:01.262Z,73.3
2022-10-08T20:45:01.299Z,71.5
2022-10-08T20:50:01.256Z,70.2
2022-10-08T20:55:01.290Z,68.0
2022-10-08T21:00:01.239Z,68.1
2022-10-08T21:05:01.340Z,68.3
2022-10-08T21:10:01.211Z,69.8
2022-10-08T21:15:01.271Z,69.9
2022-10-08T21:20:01.262Z,71.1
2022-10-08T21:25:01.330Z,72.2
2022-10-08T21:30:01.224Z,74.9
2022-10-08T21:35:01.308Z,74.4
2022-10-08T21:40:01.234Z,74.6
2022-10-08T21:45:01.312Z,74.8
2022-10-08T21:50:07.452Z,74.9
2022-10-08T21:55:01.317Z,74.3
2022-10-08T22:00:01.206Z,76.2
2022-10-08T22:05:01.303Z,81.1
2022-10-08T22:10:01.467Z,81.8
2022-10-08T22:15:01.233Z,82.8
2022-10-08T22:20:01.191Z,83.6
2022-10-08T22:25:01.229Z,83.3
2022-10-08T22:30:01.165Z,80.1
2022-10-08T22:35:01.302Z,81.0
2022-10-08T22:40:01.185Z,82.3
2022-10-08T22:45:01.223Z,80.4
2022-10-08T22:50:06.442Z,86.0
2022-10-08T22:55:01.206Z,83.8
2022-10-08T23:00:01.167Z,82.3
2022-10-08T23:05:01.206Z,79.0
2022-10-08T23:10:01.135Z,79.4
2022-10-08T23:15:01.196Z,73.0
2022-10-08T23:20:01.173Z,73.6
2022-10-08T23:25:01.256Z,74.2
2022-10-08T23:30:01.124Z,76.2
2022-10-08T23:35:01.253Z,77.2
2022-10-08T23:40:01.217Z,78.9
2022-10-08T23:45:02.254Z,80.8
2022-10-08T23:55:01.179Z,82.7
